Terminal Aerodrome Forecast
Issued by NWS

Home | Current Version | Previous Version | Graphics & Text | Print | Product List | Glossary On
Versions: 1 2 3 4 5 6 7 8 9 10 11 12 13 14 15 16 17 18
000
FTUS43 KICT 281125
TAFSLN
TAF
KSLN 281125Z 2812/0112 15008KT 6SM -SN BR OVC035
      TEMPO 2812/2815 2SM -SN BR OVC020
     FM281500 15010KT 6SM -SN OVC025
     FM010800 19006KT 4SM -SN BKN008=

USA.gov is the U.S. government's official web portal to all federal, state and local government web resources and services.